^^
Datos históricos de la estación: Murcia-Puente Tocinos
Diario Informe para Julio 8, 2019 Unidades:  Ambas    Ingés   Métrico
Diario Semanal Mensual Anual
  Máxima: Mínima: Promedio:
Temperatura: 80.2 °F /  26.8 °C 69.1 °F /  20.6 °C 73.2 °F /  22.9 °C
Punto de rocio: 65.3 °F /  18.5 °C 61.2 °F /  16.2 °C 63 °F /  17.2 °C
Humedad: 83% 54% 71%
Velocidad viento: 9.2mph /  14.8km/h - 3.9mph /  6.2km/h
Racha viento: 16.3mph /  26.2km/h - -
Viento- - ESE
Presión: 30.1 in /  1019.2 hPa 30 in /  1015.7 hPa -
Precipitación: 0 in /  0.0 mm    
 
 
Tabla de datos para Julio 8, 2019
Hora Temperatura Punto de rocio Presión Viento Velocidad viento Racha viento Humedad Intensidad lluvia(por hora) Nubes
00:04 71.1 °F /  21.7 °C 63.5 °F /  17.5 °C 30in /  1017.1hPa NE 5.2mph /  8.4km/h 9.2mph /  14.8km/h 77.5% 0in /  0.0mm
00:09 70.9 °F /  21.6 °C 63.7 °F /  17.6 °C 30in /  1016.9hPa NE 5.1mph /  8.2km/h 9mph /  14.5km/h 78% 0in /  0.0mm
00:14 70.5 °F /  21.4 °C 63.5 °F /  17.5 °C 30in /  1016.9hPa NE 4.7mph /  7.6km/h 9mph /  14.5km/h 78.3% 0in /  0.0mm
00:19 70.3 °F /  21.3 °C 63.5 °F /  17.5 °C 30in /  1017.0hPa NE 4.8mph /  7.7km/h 8.1mph /  13km/h 79% 0in /  0.0mm
00:24 70.3 °F /  21.3 °C 63.3 °F /  17.4 °C 30in /  1017.0hPa NE 5.2mph /  8.4km/h 8mph /  12.9km/h 79% 0in /  0.0mm
00:29 70.2 °F /  21.2 °C 63.7 °F /  17.6 °C 30in /  1017.0hPa NE 5.1mph /  8.2km/h 8.1mph /  13km/h 80% 0in /  0.0mm
00:34 70.2 °F /  21.2 °C 63.7 °F /  17.6 °C 30in /  1017.0hPa NE 4.7mph /  7.6km/h 8.5mph /  13.7km/h 80% 0in /  0.0mm
00:39 70.2 °F /  21.2 °C 63.7 °F /  17.6 °C 30in /  1017.0hPa NE 4.9mph /  7.9km/h 9.2mph /  14.8km/h 80% 0in /  0.0mm
00:44 70.2 °F /  21.2 °C 63.7 °F /  17.6 °C 30in /  1017.0hPa NE 5.9mph /  9.5km/h 10.4mph /  16.7km/h 80% 0in /  0.0mm
00:49 70.2 °F /  21.2 °C 63.7 °F /  17.6 °C 30in /  1017.1hPa NE 5.8mph /  9.4km/h 10mph /  16.1km/h 80% 0in /  0.0mm
00:54 70.2 °F /  21.2 °C 63.7 °F /  17.6 °C 30in /  1017.1hPa NNE 5.4mph /  8.7km/h 7mph /  11.3km/h 80% 0in /  0.0mm
00:59 70 °F /  21.1 °C 63.5 °F /  17.5 °C 30in /  1017.1hPa NNE 5mph /  8.1km/h 6mph /  9.7km/h 80% 0in /  0.0mm
01:04 70 °F /  21.1 °C 63.5 °F /  17.5 °C 30in /  1017.1hPa NNE 3.6mph /  5.8km/h 6.2mph /  10km/h 80% 0in /  0.0mm
01:09 69.8 °F /  21 °C 63.3 °F /  17.4 °C 30in /  1017.0hPa NE 3.7mph /  5.9km/h 6.9mph /  11.1km/h 80% 0in /  0.0mm
01:14 69.8 °F /  21 °C 63.3 °F /  17.4 °C 30in /  1017.0hPa NNE 4mph /  6.4km/h 7mph /  11.3km/h 80% 0in /  0.0mm
01:19 69.6 °F /  20.9 °C 63.5 °F /  17.5 °C 30in /  1017.0hPa NE 3.9mph /  6.3km/h 6.9mph /  11.1km/h 80.8% 0in /  0.0mm
01:24 69.6 °F /  20.9 °C 63.5 °F /  17.5 °C 30in /  1016.8hPa NNE 3.6mph /  5.8km/h 7mph /  11.3km/h 81% 0in /  0.0mm
01:29 69.6 °F /  20.9 °C 63.5 °F /  17.5 °C 30in /  1016.8hPa NNE 3.5mph /  5.6km/h 6mph /  9.7km/h 81% 0in /  0.0mm
01:34 69.4 °F /  20.8 °C 63.5 °F /  17.5 °C 30in /  1016.8hPa NE 2.9mph /  4.7km/h 5.8mph /  9.3km/h 81% 0in /  0.0mm
01:39 69.4 °F /  20.8 °C 63.3 °F /  17.4 °C 30in /  1016.8hPa ENE 2.9mph /  4.7km/h 6mph /  9.7km/h 81% 0in /  0.0mm
01:44 69.4 °F /  20.8 °C 63.3 °F /  17.4 °C 30in /  1016.8hPa NE 3.1mph /  5km/h 5.2mph /  8.4km/h 81% 0in /  0.0mm
01:49 69.4 °F /  20.8 °C 63.3 °F /  17.4 °C 30in /  1016.8hPa ENE 3.1mph /  5km/h 5.2mph /  8.4km/h 81% 0in /  0.0mm
01:54 69.3 °F /  20.7 °C 63.3 °F /  17.4 °C 30in /  1016.8hPa NNE 3.1mph /  5km/h 6.2mph /  10km/h 81.2% 0in /  0.0mm
01:59 69.3 °F /  20.7 °C 63.5 °F /  17.5 °C 30in /  1016.8hPa NNE 3.1mph /  5km/h 6mph /  9.7km/h 81.8% 0in /  0.0mm
02:04 69.3 °F /  20.7 °C 63.5 °F /  17.5 °C 30in /  1016.8hPa NE 3.1mph /  5km/h 6mph /  9.7km/h 82% 0in /  0.0mm
02:09 69.3 °F /  20.7 °C 63.5 °F /  17.5 °C 30in /  1016.8hPa NNE 3.1mph /  5km/h 6mph /  9.7km/h 82% 0in /  0.0mm
02:14 69.3 °F /  20.7 °C 63.5 °F /  17.5 °C 30in /  1016.8hPa NNE 3.1mph /  5km/h 5mph /  8km/h 82% 0in /  0.0mm
02:19 69.3 °F /  20.7 °C 63.5 °F /  17.5 °C 30in /  1016.8hPa NNE 3mph /  4.8km/h 5mph /  8km/h 82% 0in /  0.0mm
02:24 69.3 °F /  20.7 °C 63.3 °F /  17.4 °C 30in /  1016.8hPa NNE 2.4mph /  3.9km/h 5mph /  8km/h 81.5% 0in /  0.0mm
02:29 69.3 °F /  20.7 °C 63.1 °F /  17.3 °C 30in /  1016.8hPa NE 2.5mph /  4km/h 6.2mph /  10km/h 81% 0in /  0.0mm
02:34 69.3 °F /  20.7 °C 63.1 °F /  17.3 °C 30in /  1016.9hPa NNE 2.9mph /  4.7km/h 6mph /  9.7km/h 81% 0in /  0.0mm
02:39 69.3 °F /  20.7 °C 63.3 °F /  17.4 °C 30in /  1016.9hPa NNE 2.9mph /  4.7km/h 5mph /  8km/h 81.4% 0in /  0.0mm
02:44 69.3 °F /  20.7 °C 63.3 °F /  17.4 °C 30in /  1016.9hPa NE 2.9mph /  4.7km/h 5mph /  8km/h 81.4% 0in /  0.0mm
02:49 69.4 °F /  20.8 °C 63.5 °F /  17.5 °C 30in /  1016.9hPa NE 2.8mph /  4.5km/h 5mph /  8km/h 81.4% 0in /  0.0mm
02:54 69.4 °F /  20.8 °C 63.7 °F /  17.6 °C 30in /  1016.9hPa NNE 2.4mph /  3.9km/h 5mph /  8km/h 82% 0in /  0.0mm
02:59 69.4 °F /  20.8 °C 63.5 °F /  17.5 °C 30in /  1016.9hPa NE 2.3mph /  3.7km/h 4.6mph /  7.4km/h 81.4% 0in /  0.0mm
03:04 69.4 °F /  20.8 °C 63.3 °F /  17.4 °C 30in /  1017.1hPa ENE 1.8mph /  2.9km/h 5mph /  8km/h 81% 0in /  0.0mm
03:09 69.4 °F /  20.8 °C 63.3 °F /  17.4 °C 30in /  1017.1hPa ENE 1.9mph /  3.1km/h 5mph /  8km/h 81% 0in /  0.0mm
03:14 69.4 °F /  20.8 °C 63.5 °F /  17.5 °C 30in /  1017.1hPa NE 2.4mph /  3.9km/h 4.6mph /  7.4km/h 81% 0in /  0.0mm
03:19 69.6 °F /  20.9 °C 63.5 °F /  17.5 °C 30in /  1017.1hPa NNO 2.3mph /  3.7km/h 5mph /  8km/h 81% 0in /  0.0mm
03:24 69.6 °F /  20.9 °C 63.5 °F /  17.5 °C 30in /  1017.1hPa NNO 2mph /  3.2km/h 4mph /  6.4km/h 81% 0in /  0.0mm
03:29 69.6 °F /  20.9 °C 63.5 °F /  17.5 °C 30in /  1017.1hPa NO 2mph /  3.2km/h 3mph /  4.8km/h 81% 0in /  0.0mm
03:34 69.6 °F /  20.9 °C 63.5 °F /  17.5 °C 30in /  1017.1hPa NNO 1.8mph /  2.9km/h 4.6mph /  7.4km/h 81% 0in /  0.0mm
03:39 69.6 °F /  20.9 °C 63.5 °F /  17.5 °C 30in /  1017.1hPa NNO 1.9mph /  3km/h 5mph /  8km/h 81% 0in /  0.0mm
03:44 69.6 °F /  20.9 °C 63.5 °F /  17.5 °C 30in /  1017.1hPa NNO 2mph /  3.2km/h 5mph /  8km/h 81% 0in /  0.0mm
03:49 69.6 °F /  20.9 °C 63.5 °F /  17.5 °C 30in /  1017.1hPa NNE 2.1mph /  3.3km/h 5mph /  8km/h 81% 0in /  0.0mm
03:54 69.6 °F /  20.9 °C 63.5 °F /  17.5 °C 30in /  1016.9hPa NNE 2.4mph /  3.9km/h 5.4mph /  8.7km/h 81% 0in /  0.0mm
03:59 69.4 °F /  20.8 °C 63.3 °F /  17.4 °C 30in /  1016.9hPa NNE 2.5mph /  4.1km/h 6mph /  9.7km/h 81% 0in /  0.0mm
04:04 69.4 °F /  20.8 °C 63.3 °F /  17.4 °C 30in /  1017.0hPa North 3.1mph /  5km/h 5mph /  8km/h 81% 0in /  0.0mm
04:09 69.4 °F /  20.8 °C 63.3 °F /  17.4 °C 30in /  1017.0hPa North 2.9mph /  4.7km/h 4.6mph /  7.4km/h 81% 0in /  0.0mm
04:14 69.4 °F /  20.8 °C 63.3 °F /  17.4 °C 30in /  1017.0hPa NE 2mph /  3.2km/h 5mph /  8km/h 81% 0in /  0.0mm
04:19 69.4 °F /  20.8 °C 63.3 °F /  17.4 °C 30in /  1017.0hPa NE 2.2mph /  3.5km/h 5mph /  8km/h 81% 0in /  0.0mm
04:24 69.4 °F /  20.8 °C 63.3 °F /  17.4 °C 30in /  1017.0hPa NE 2.9mph /  4.7km/h 5.2mph /  8.4km/h 81% 0in /  0.0mm
04:29 69.3 °F /  20.7 °C 63.1 °F /  17.3 °C 30in /  1017.0hPa NE 2.9mph /  4.7km/h 5mph /  8km/h 81% 0in /  0.0mm
04:34 69.3 °F /  20.7 °C 63.3 °F /  17.4 °C 30in /  1017.0hPa NE 2.9mph /  4.6km/h 5mph /  8km/h 81.1% 0in /  0.0mm
04:39 69.3 °F /  20.7 °C 63.5 °F /  17.5 °C 30in /  1017.0hPa NE 2.8mph /  4.5km/h 4.6mph /  7.4km/h 82% 0in /  0.0mm
04:44 69.3 °F /  20.7 °C 63.5 °F /  17.5 °C 30in /  1017.0hPa NE 2.4mph /  3.9km/h 5mph /  8km/h 82% 0in /  0.0mm
04:49 69.3 °F /  20.7 °C 63.5 °F /  17.5 °C 30in /  1017.1hPa NE 2.4mph /  3.9km/h 5mph /  8km/h 82% 0in /  0.0mm
04:54 69.4 °F /  20.8 °C 63.7 °F /  17.6 °C 30in /  1017.1hPa NE 2.4mph /  3.9km/h 3.5mph /  5.6km/h 82% 0in /  0.0mm
04:59 69.4 °F /  20.8 °C 63.7 °F /  17.6 °C 30in /  1017.1hPa NE 2.3mph /  3.7km/h 3.5mph /  5.6km/h 82% 0in /  0.0mm
05:04 69.4 °F /  20.8 °C 63.7 °F /  17.6 °C 30in /  1017.1hPa NE 1.8mph /  2.9km/h 3mph /  4.8km/h 82% 0in /  0.0mm
05:09 69.6 °F /  20.9 °C 63.9 °F /  17.7 °C 30in /  1017.0hPa NE 1.8mph /  2.9km/h 3mph /  4.8km/h 82% 0in /  0.0mm
05:14 69.6 °F /  20.9 °C 63.9 °F /  17.7 °C 30in /  1017.0hPa NE 1.8mph /  2.9km/h 2.4mph /  3.9km/h 82% 0in /  0.0mm
05:19 69.6 °F /  20.9 °C 63.9 °F /  17.7 °C 30in /  1017.0hPa NE 1.5mph /  2.4km/h 2.3mph /  3.7km/h 82% 0in /  0.0mm
05:24 69.6 °F /  20.9 °C 63.9 °F /  17.7 °C 30in /  1017.0hPa Calm   2.3mph /  3.7km/h 82% 0in /  0.0mm
05:29 69.6 °F /  20.9 °C 63.7 °F /  17.6 °C 30in /  1017.0hPa NE 0.3mph /  0.5km/h 3.6mph /  5.8km/h 81.6% 0in /  0.0mm
05:34 69.6 °F /  20.9 °C 63.5 °F /  17.5 °C 30in /  1017.2hPa NE 1.8mph /  2.9km/h 4.6mph /  7.4km/h 81% 0in /  0.0mm
05:39 69.6 °F /  20.9 °C 63.5 °F /  17.5 °C 30in /  1017.2hPa NE 1.9mph /  3.1km/h 5mph /  8km/h 81% 0in /  0.0mm
05:44 69.4 °F /  20.8 °C 63.5 °F /  17.5 °C 30in /  1017.2hPa NE 2.4mph /  3.9km/h 5mph /  8km/h 81.5% 0in /  0.0mm
05:49 69.4 °F /  20.8 °C 63.7 °F /  17.6 °C 30in /  1017.3hPa NE 2.3mph /  3.7km/h 4.6mph /  7.4km/h 82% 0in /  0.0mm
05:54 69.4 °F /  20.8 °C 63.7 °F /  17.6 °C 30in /  1017.3hPa ENE 1.8mph /  2.9km/h 5mph /  8km/h 81.8% 0in /  0.0mm
05:59 69.4 °F /  20.8 °C 63.7 °F /  17.6 °C 30in /  1017.3hPa ENE 1.9mph /  3.1km/h 4.6mph /  7.4km/h 82% 0in /  0.0mm
06:04 69.4 °F /  20.8 °C 63.7 °F /  17.6 °C 30in /  1017.3hPa ENE 2.4mph /  3.9km/h 5mph /  8km/h 82% 0in /  0.0mm
06:09 69.4 °F /  20.8 °C 63.7 °F /  17.6 °C 30in /  1017.2hPa NE 2.3mph /  3.7km/h 5mph /  8km/h 82% 0in /  0.0mm
06:14 69.4 °F /  20.8 °C 63.7 °F /  17.6 °C 30in /  1017.2hPa NE 2mph /  3.2km/h 3.5mph /  5.6km/h 82% 0in /  0.0mm
06:19 69.4 °F /  20.8 °C 63.7 °F /  17.6 °C 30in /  1017.3hPa NE 1.9mph /  3.1km/h 3mph /  4.8km/h 82% 0in /  0.0mm
06:24 69.4 °F /  20.8 °C 63.5 °F /  17.5 °C 30in /  1017.3hPa NE 1.4mph /  2.2km/h 3.5mph /  5.6km/h 81.6% 0in /  0.0mm
06:29 69.4 °F /  20.8 °C 63.3 °F /  17.4 °C 30in /  1017.3hPa NNE 1.4mph /  2.2km/h 3.6mph /  5.8km/h 81% 0in /  0.0mm
06:34 69.4 °F /  20.8 °C 63.5 °F /  17.5 °C 30in /  1017.4hPa NNE 1.4mph /  2.2km/h 4mph /  6.4km/h 81% 0in /  0.0mm
06:39 69.6 °F /  20.9 °C 63.5 °F /  17.5 °C 30in /  1017.4hPa NNE 1.2mph /  1.9km/h 2.4mph /  3.9km/h 81% 0in /  0.0mm
06:44 69.6 °F /  20.9 °C 63.5 °F /  17.5 °C 30in /  1017.4hPa Calm   2.4mph /  3.9km/h 80.8% 0in /  0.0mm
06:49 69.6 °F /  20.9 °C 63.1 °F /  17.3 °C 30.1in /  1017.6hPa NNE 0.2mph /  0.4km/h 3.6mph /  5.8km/h 80% 0in /  0.0mm
06:54 69.6 °F /  20.9 °C 63.1 °F /  17.3 °C 30.1in /  1017.6hPa NE 1.4mph /  2.2km/h 4.6mph /  7.4km/h 80% 0in /  0.0mm
06:59 69.6 °F /  20.9 °C 63.1 °F /  17.3 °C 30.1in /  1017.6hPa NE 1.7mph /  2.8km/h 5mph /  8km/h 80% 0in /  0.0mm
07:04 69.6 °F /  20.9 °C 63.1 °F /  17.3 °C 30.1in /  1017.7hPa NE 2.9mph /  4.6km/h 5mph /  8km/h 80% 0in /  0.0mm
07:09 69.4 °F /  20.8 °C 63 °F /  17.2 °C 30.1in /  1017.7hPa NE 2.8mph /  4.5km/h 5mph /  8km/h 80% 0in /  0.0mm
07:14 69.4 °F /  20.8 °C 63 °F /  17.2 °C 30.1in /  1017.7hPa NE 2.4mph /  3.9km/h 4.6mph /  7.4km/h 80% 0in /  0.0mm
07:19 69.4 °F /  20.8 °C 63 °F /  17.2 °C 30.1in /  1017.8hPa NE 2.3mph /  3.7km/h 5mph /  8km/h 80% 0in /  0.0mm
07:24 69.4 °F /  20.8 °C 63 °F /  17.2 °C 30.1in /  1017.8hPa NE 2mph /  3.2km/h 4.6mph /  7.4km/h 80% 0in /  0.0mm
07:29 69.4 °F /  20.8 °C 63.1 °F /  17.3 °C 30.1in /  1017.8hPa NE 2mph /  3.2km/h 5mph /  8km/h 80.2% 0in /  0.0mm
07:34 69.4 °F /  20.8 °C 63.3 °F /  17.4 °C 30.1in /  1018.0hPa NE 2mph /  3.2km/h 5.2mph /  8.4km/h 81% 0in /  0.0mm
07:39 69.4 °F /  20.8 °C 63.3 °F /  17.4 °C 30.1in /  1018.0hPa NE 2.2mph /  3.5km/h 5mph /  8km/h 81% 0in /  0.0mm
07:44 69.4 °F /  20.8 °C 63.3 °F /  17.4 °C 30.1in /  1018.0hPa NE 3.1mph /  5km/h 5mph /  8km/h 81% 0in /  0.0mm
07:49 69.3 °F /  20.7 °C 63.3 °F /  17.4 °C 30.1in /  1018.0hPa NE 2.9mph /  4.7km/h 4mph /  6.4km/h 81.1% 0in /  0.0mm
07:54 69.3 °F /  20.7 °C 63.5 °F /  17.5 °C 30.1in /  1018.0hPa NE 2mph /  3.2km/h 3.5mph /  5.6km/h 82% 0in /  0.0mm
07:59 69.3 °F /  20.7 °C 63.5 °F /  17.5 °C 30.1in /  1018.0hPa NE 1.9mph /  3km/h 3mph /  4.8km/h 82% 0in /  0.0mm
08:04 69.3 °F /  20.7 °C 63.5 °F /  17.5 °C 30.1in /  1018.0hPa NE 1.4mph /  2.2km/h 2.9mph /  4.7km/h 82% 0in /  0.0mm
08:09 69.3 °F /  20.7 °C 63.5 °F /  17.5 °C 30.1in /  1018.0hPa NE 1.5mph /  2.4km/h 3.5mph /  5.6km/h 82% 0in /  0.0mm
08:14 69.3 °F /  20.7 °C 63.5 °F /  17.5 °C 30.1in /  1018.0hPa NE 1.8mph /  2.9km/h 3.5mph /  5.6km/h 82% 0in /  0.0mm
08:19 69.1 °F /  20.6 °C 63.3 °F /  17.4 °C 30.1in /  1018.0hPa NE 1.9mph /  3km/h 4mph /  6.4km/h 82% 0in /  0.0mm
08:24 69.1 °F /  20.6 °C 63.3 °F /  17.4 °C 30.1in /  1018.0hPa NE 2mph /  3.2km/h 5mph /  8km/h 82% 0in /  0.0mm
08:29 69.1 °F /  20.6 °C 63.7 °F /  17.6 °C 30.1in /  1018.0hPa NE 2.1mph /  3.3km/h 5mph /  8km/h 82.7% 0in /  0.0mm
08:34 69.1 °F /  20.6 °C 63.7 °F /  17.6 °C 30.1in /  1018.2hPa NE 2.4mph /  3.9km/h 5mph /  8km/h 83% 0in /  0.0mm
08:39 69.1 °F /  20.6 °C 63.7 °F /  17.6 °C 30.1in /  1018.2hPa NE 2.3mph /  3.7km/h 5mph /  8km/h 83% 0in /  0.0mm
08:44 69.1 °F /  20.6 °C 63.5 °F /  17.5 °C 30.1in /  1018.2hPa NE 2mph /  3.2km/h 4mph /  6.4km/h 82.4% 0in /  0.0mm
08:49 69.3 °F /  20.7 °C 63.5 °F /  17.5 °C 30.1in /  1018.2hPa NE 1.9mph /  3km/h 4mph /  6.4km/h 82% 0in /  0.0mm
08:54 69.4 °F /  20.8 °C 63.7 °F /  17.6 °C 30.1in /  1018.2hPa NE 1.4mph /  2.2km/h 3.6mph /  5.8km/h 81.8% 0in /  0.0mm
08:59 69.8 °F /  21 °C 63.7 °F /  17.6 °C 30.1in /  1018.2hPa ENE 1.5mph /  2.4km/h 4.6mph /  7.4km/h 81% 0in /  0.0mm
09:04 70.2 °F /  21.2 °C 63.7 °F /  17.6 °C 30.1in /  1018.5hPa ENE 1.8mph /  2.9km/h 5mph /  8km/h 80.1% 0in /  0.0mm
09:09 70.3 °F /  21.3 °C 63.7 °F /  17.6 °C 30.1in /  1018.5hPa ENE 1.8mph /  2.9km/h 4mph /  6.4km/h 79.8% 0in /  0.0mm
09:14 70.3 °F /  21.3 °C 63.5 °F /  17.5 °C 30.1in /  1018.5hPa ENE 1.8mph /  2.9km/h 3mph /  4.8km/h 79.1% 0in /  0.0mm
09:19 70.5 °F /  21.4 °C 63.9 °F /  17.7 °C 30.1in /  1018.5hPa ENE 1.5mph /  2.4km/h 2.4mph /  3.9km/h 79.5% 0in /  0.0mm
09:24 71.1 °F /  21.7 °C 63.9 °F /  17.7 °C 30.1in /  1018.5hPa Calm   3.5mph /  5.6km/h 78.1% 0in /  0.0mm
09:29 71.1 °F /  21.7 °C 63.9 °F /  17.7 °C 30.1in /  1018.5hPa NNE 0.2mph /  0.4km/h 3.6mph /  5.8km/h 78% 0in /  0.0mm
09:34 71.1 °F /  21.7 °C 63.9 °F /  17.7 °C 30.1in /  1018.8hPa North 1.4mph /  2.2km/h 4mph /  6.4km/h 78% 0in /  0.0mm
09:39 71.1 °F /  21.7 °C 63.9 °F /  17.7 °C 30.1in /  1018.8hPa NO 1.5mph /  2.4km/h 4.6mph /  7.4km/h 78% 0in /  0.0mm
09:44 71.1 °F /  21.7 °C 63.9 °F /  17.7 °C 30.1in /  1018.8hPa NO 2mph /  3.2km/h 5mph /  8km/h 78% 0in /  0.0mm
09:49 70.9 °F /  21.6 °C 63.7 °F /  17.6 °C 30.1in /  1018.9hPa NO 2mph /  3.2km/h 5mph /  8km/h 78% 0in /  0.0mm
09:54 71.1 °F /  21.7 °C 63.9 °F /  17.7 °C 30.1in /  1018.9hPa NO 1.8mph /  2.9km/h 3mph /  4.8km/h 78% 0in /  0.0mm
09:59 71.2 °F /  21.8 °C 64 °F /  17.8 °C 30.1in /  1018.9hPa NO 1.4mph /  2.3km/h 2.3mph /  3.7km/h 78% 0in /  0.0mm
10:04 71.8 °F /  22.1 °C 64.2 °F /  17.9 °C 30.1in /  1019.0hPa Calm   3.1mph /  5km/h 77% 0in /  0.0mm
10:09 72.3 °F /  22.4 °C 64.4 °F /  18 °C 30.1in /  1019.0hPa Este 0.2mph /  0.4km/h 3.5mph /  5.6km/h 76.3% 0in /  0.0mm
10:14 73 °F /  22.8 °C 64.6 °F /  18.1 °C 30.1in /  1019.0hPa Este 1.4mph /  2.2km/h 3mph /  4.8km/h 74.9% 0in /  0.0mm
10:19 73.6 °F /  23.1 °C 64.6 °F /  18.1 °C 30.1in /  1019.2hPa NE 1.5mph /  2.4km/h 4.6mph /  7.4km/h 73.6% 0in /  0.0mm
10:24 73.9 °F /  23.3 °C 64.6 °F /  18.1 °C 30.1in /  1019.2hPa NNO 1.8mph /  2.9km/h 5mph /  8km/h 72.8% 0in /  0.0mm
10:29 73.9 °F /  23.3 °C 64.6 °F /  18.1 °C 30.1in /  1019.2hPa NNE 2mph /  3.2km/h 5mph /  8km/h 72.5% 0in /  0.0mm
10:34 74.1 °F /  23.4 °C 64.6 °F /  18.1 °C 30.1in /  1019.2hPa NNE 2.9mph /  4.7km/h 5.4mph /  8.7km/h 72% 0in /  0.0mm
10:39 74.3 °F /  23.5 °C 64.6 °F /  18.1 °C 30.1in /  1019.2hPa NE 2.9mph /  4.7km/h 6mph /  9.7km/h 72% 0in /  0.0mm
10:44 74.1 °F /  23.4 °C 64.6 °F /  18.1 °C 30.1in /  1019.2hPa NNE 3.1mph /  5km/h 7.6mph /  12.2km/h 72.2% 0in /  0.0mm
10:49 74.1 °F /  23.4 °C 64.8 °F /  18.2 °C 30.1in /  1019.2hPa NE 3.2mph /  5.1km/h 8.1mph /  13km/h 72.8% 0in /  0.0mm
10:54 74.1 °F /  23.4 °C 64.9 °F /  18.3 °C 30.1in /  1019.1hPa NE 3.6mph /  5.8km/h 6.9mph /  11.1km/h 73.2% 0in /  0.0mm
10:59 73.9 °F /  23.3 °C 64.9 °F /  18.3 °C 30.1in /  1019.1hPa NE 3.7mph /  5.9km/h 7mph /  11.3km/h 73.8% 0in /  0.0mm
11:04 74.1 °F /  23.4 °C 65.1 °F /  18.4 °C 30.1in /  1019.2hPa NE 4mph /  6.4km/h 7mph /  11.3km/h 73.4% 0in /  0.0mm
11:09 74.3 °F /  23.5 °C 65.1 °F /  18.4 °C 30.1in /  1019.2hPa NE 4mph /  6.5km/h 7mph /  11.3km/h 73% 0in /  0.0mm
11:14 74.7 °F /  23.7 °C 65.3 °F /  18.5 °C 30.1in /  1019.2hPa NE 4mph /  6.5km/h 7mph /  11.3km/h 72.7% 0in /  0.0mm
11:19 75 °F /  23.9 °C 65.1 °F /  18.4 °C 30.1in /  1019.2hPa ENE 3.9mph /  6.2km/h 7mph /  11.3km/h 71.6% 0in /  0.0mm
11:24 75.4 °F /  24.1 °C 65.1 °F /  18.4 °C 30.1in /  1019.2hPa ENE 3.1mph /  5km/h 6mph /  9.7km/h 70.7% 0in /  0.0mm
11:29 75.7 °F /  24.3 °C 65.3 °F /  18.5 °C 30.1in /  1019.2hPa NE 2.9mph /  4.6km/h 5.2mph /  8.4km/h 69.9% 0in /  0.0mm
11:34 76.5 °F /  24.7 °C 64.9 °F /  18.3 °C 30.1in /  1019.2hPa ENE 1.8mph /  2.9km/h 6.2mph /  10km/h 67.6% 0in /  0.0mm
11:39 76.5 °F /  24.7 °C 64.4 °F /  18 °C 30.1in /  1019.2hPa SSE 2.1mph /  3.3km/h 6mph /  9.7km/h 66.1% 0in /  0.0mm
11:44 76.5 °F /  24.7 °C 64.4 °F /  18 °C 30.1in /  1019.2hPa SO 3.1mph /  5km/h 5.9mph /  9.5km/h 66% 0in /  0.0mm
11:49 76.5 °F /  24.7 °C 64.2 °F /  17.9 °C 30.1in /  1019.2hPa SO 3.1mph /  5km/h 6mph /  9.7km/h 66% 0in /  0.0mm
11:54 75.9 °F /  24.4 °C 63.9 °F /  17.7 °C 30.1in /  1019.2hPa SO 3.1mph /  5km/h 6.2mph /  10km/h 66.2% 0in /  0.0mm
11:59 76.1 °F /  24.5 °C 64.2 °F /  17.9 °C 30.1in /  1019.2hPa Oeste 3.2mph /  5.2km/h 7.4mph /  11.9km/h 66.8% 0in /  0.0mm
12:04 76.5 °F /  24.7 °C 63.9 °F /  17.7 °C 30.1in /  1019.2hPa OSO 3.6mph /  5.8km/h 7mph /  11.3km/h 65.3% 0in /  0.0mm
12:09 76.6 °F /  24.8 °C 63.7 °F /  17.6 °C 30.1in /  1019.1hPa Oeste 3.5mph /  5.6km/h 7mph /  11.3km/h 64.5% 0in /  0.0mm
12:14 76.5 °F /  24.7 °C 63.3 °F /  17.4 °C 30.1in /  1019.1hPa ONO 2.9mph /  4.7km/h 6.9mph /  11.1km/h 64% 0in /  0.0mm
12:19 76.5 °F /  24.7 °C 63.3 °F /  17.4 °C 30.1in /  1019.1hPa NO 3mph /  4.8km/h 7mph /  11.3km/h 64% 0in /  0.0mm
12:24 76.5 °F /  24.7 °C 63.3 °F /  17.4 °C 30.1in /  1019.0hPa NO 3.6mph /  5.8km/h 5.2mph /  8.4km/h 64% 0in /  0.0mm
12:29 76.5 °F /  24.7 °C 63.3 °F /  17.4 °C 30.1in /  1019.0hPa NNO 3.5mph /  5.6km/h 5mph /  8km/h 64% 0in /  0.0mm
12:34 76.5 °F /  24.7 °C 63.3 °F /  17.4 °C 30.1in /  1019.0hPa North 2.9mph /  4.7km/h 5mph /  8km/h 64% 0in /  0.0mm
12:39 76.6 °F /  24.8 °C 63.5 °F /  17.5 °C 30.1in /  1018.8hPa NO 2.7mph /  4.4km/h 5.2mph /  8.4km/h 64% 0in /  0.0mm
12:44 76.6 °F /  24.8 °C 63.1 °F /  17.3 °C 30.1in /  1018.8hPa ONO 2mph /  3.2km/h 5.2mph /  8.4km/h 63% 0in /  0.0mm
12:49 76.8 °F /  24.9 °C 63.3 °F /  17.4 °C 30.1in /  1018.8hPa ONO 2mph /  3.2km/h 5.2mph /  8.4km/h 62.9% 0in /  0.0mm
12:54 77.2 °F /  25.1 °C 63.1 °F /  17.3 °C 30.1in /  1018.6hPa Este 1.8mph /  2.9km/h 5.8mph /  9.3km/h 61.9% 0in /  0.0mm
12:59 77.4 °F /  25.2 °C 63 °F /  17.2 °C 30.1in /  1018.6hPa SE 1.9mph /  3.1km/h 6mph /  9.7km/h 61% 0in /  0.0mm
13:04 77.4 °F /  25.2 °C 63.1 °F /  17.3 °C 30.1in /  1018.6hPa NE 2.4mph /  3.9km/h 8.5mph /  13.7km/h 61.7% 0in /  0.0mm
13:09 77.2 °F /  25.1 °C 63.1 °F /  17.3 °C 30.1in /  1018.4hPa ENE 2.7mph /  4.3km/h 9mph /  14.5km/h 62% 0in /  0.0mm
13:14 77.2 °F /  25.1 °C 63.3 °F /  17.4 °C 30.1in /  1018.4hPa NE 4mph /  6.4km/h 7mph /  11.3km/h 62.5% 0in /  0.0mm
13:19 77.4 °F /  25.2 °C 63.3 °F /  17.4 °C 30.1in /  1018.4hPa ENE 3.7mph /  6km/h 8.1mph /  13km/h 61.9% 0in /  0.0mm
13:24 77.9 °F /  25.5 °C 63.3 °F /  17.4 °C 30.1in /  1018.1hPa ENE 2.4mph /  3.9km/h 9.7mph /  15.6km/h 60.7% 0in /  0.0mm
13:29 78.3 °F /  25.7 °C 63 °F /  17.2 °C 30.1in /  1018.1hPa NE 3mph /  4.8km/h 10mph /  16.1km/h 59.5% 0in /  0.0mm
13:34 78.1 °F /  25.6 °C 62.8 °F /  17.1 °C 30.1in /  1018.1hPa NE 5.2mph /  8.4km/h 10.7mph /  17.2km/h 59.5% 0in /  0.0mm
13:39 78.1 °F /  25.6 °C 62.8 °F /  17.1 °C 30.1in /  1017.8hPa NE 5.3mph /  8.6km/h 11mph /  17.7km/h 59.3% 0in /  0.0mm
13:44 78.3 °F /  25.7 °C 62.8 °F /  17.1 °C 30.1in /  1017.8hPa NE 5.9mph /  9.5km/h 11.8mph /  19km/h 59% 0in /  0.0mm
13:49 78.4 °F /  25.8 °C 62.6 °F /  17 °C 30.1in /  1017.8hPa NE 5.8mph /  9.4km/h 12mph /  19.3km/h 58.6% 0in /  0.0mm
13:54 78.6 °F /  25.9 °C 62.4 °F /  16.9 °C 30.1in /  1017.7hPa ENE 5.4mph /  8.7km/h 10.7mph /  17.2km/h 57.9% 0in /  0.0mm
13:59 78.6 °F /  25.9 °C 62.4 °F /  16.9 °C 30.1in /  1017.7hPa Este 5.3mph /  8.5km/h 11mph /  17.7km/h 57.4% 0in /  0.0mm
14:04 78.4 °F /  25.8 °C 62.4 °F /  16.9 °C 30.1in /  1017.7hPa Este 4.7mph /  7.6km/h 9.7mph /  15.6km/h 58% 0in /  0.0mm
14:09 78.4 °F /  25.8 °C 63 °F /  17.2 °C 30.1in /  1017.6hPa ESE 4.8mph /  7.7km/h 10mph /  16.1km/h 59.1% 0in /  0.0mm
14:14 78.4 °F /  25.8 °C 63 °F /  17.2 °C 30.1in /  1017.6hPa ESE 5.2mph /  8.4km/h 11.8mph /  19km/h 59% 0in /  0.0mm
14:19 78.4 °F /  25.8 °C 63 °F /  17.2 °C 30.1in /  1017.6hPa SE 5.4mph /  8.7km/h 12mph /  19.3km/h 59% 0in /  0.0mm
14:24 78.4 °F /  25.8 °C 63 °F /  17.2 °C 30in /  1017.3hPa ESE 6.4mph /  10.3km/h 14mph /  22.5km/h 59% 0in /  0.0mm
14:29 78.4 °F /  25.8 °C 62.6 °F /  17 °C 30in /  1017.3hPa ESE 6.6mph /  10.6km/h 14mph /  22.5km/h 58.4% 0in /  0.0mm
14:34 78.3 °F /  25.7 °C 62.6 °F /  17 °C 30in /  1017.3hPa ESE 7.4mph /  11.9km/h 14mph /  22.5km/h 58.6% 0in /  0.0mm
14:39 78.3 °F /  25.7 °C 62.2 °F /  16.8 °C 30in /  1017.1hPa ESE 7.4mph /  11.9km/h 14mph /  22.5km/h 58.2% 0in /  0.0mm
14:44 78.3 °F /  25.7 °C 62.2 °F /  16.8 °C 30in /  1017.1hPa ESE 7.4mph /  11.9km/h 14mph /  22.5km/h 58.1% 0in /  0.0mm
14:49 78.3 °F /  25.7 °C 62.8 °F /  17.1 °C 30in /  1017.1hPa SE 7.2mph /  11.6km/h 12mph /  19.3km/h 58.9% 0in /  0.0mm
14:54 78.3 °F /  25.7 °C 63.1 °F /  17.3 °C 30in /  1016.9hPa SE 6.4mph /  10.3km/h 12mph /  19.3km/h 59.8% 0in /  0.0mm
14:59 78.4 °F /  25.8 °C 63.1 °F /  17.3 °C 30in /  1016.9hPa SE 6.2mph /  10km/h 11.5mph /  18.5km/h 59.5% 0in /  0.0mm
15:04 78.6 °F /  25.9 °C 62.8 °F /  17.1 °C 30in /  1016.9hPa SE 5.4mph /  8.7km/h 13.5mph /  21.7km/h 58.5% 0in /  0.0mm
15:09 78.6 °F /  25.9 °C 62.6 °F /  17 °C 30in /  1016.7hPa SSE 5.7mph /  9.2km/h 14mph /  22.5km/h 58% 0in /  0.0mm
15:14 78.6 °F /  25.9 °C 62.6 °F /  17 °C 30in /  1016.7hPa SE 6.9mph /  11.1km/h 14mph /  22.5km/h 57.7% 0in /  0.0mm
15:19 79 °F /  26.1 °C 62.2 °F /  16.8 °C 30in /  1016.7hPa SE 6.7mph /  10.8km/h 12.3mph /  19.8km/h 56.7% 0in /  0.0mm
15:24 79.3 °F /  26.3 °C 62.6 °F /  17 °C 30in /  1016.7hPa SSE 5.9mph /  9.5km/h 15mph /  24.1km/h 56.7% 0in /  0.0mm
15:29 79.3 °F /  26.3 °C 62.8 °F /  17.1 °C 30in /  1016.7hPa SE 6.3mph /  10.1km/h 16.3mph /  26.2km/h 57% 0in /  0.0mm
15:34 79.7 °F /  26.5 °C 62.8 °F /  17.1 °C 30in /  1016.7hPa SSE 8.1mph /  13km/h 16.1mph /  25.9km/h 56.3% 0in /  0.0mm
15:39 79.9 °F /  26.6 °C 63 °F /  17.2 °C 30in /  1016.6hPa SE 8mph /  12.9km/h 16mph /  25.7km/h 56.6% 0in /  0.0mm
15:44 79.7 °F /  26.5 °C 62.4 °F /  16.9 °C 30in /  1016.6hPa SE 7.6mph /  12.2km/h 16.1mph /  25.9km/h 55.8% 0in /  0.0mm
15:49 79.3 °F /  26.3 °C 62.4 °F /  16.9 °C 30in /  1016.6hPa SSE 7.7mph /  12.4km/h 16mph /  25.7km/h 56.3% 0in /  0.0mm
15:54 79.5 °F /  26.4 °C 62.4 °F /  16.9 °C 30in /  1016.5hPa SE 8.1mph /  13km/h 15mph /  24.1km/h 56.2% 0in /  0.0mm
15:59 79.5 °F /  26.4 °C 62.4 °F /  16.9 °C 30in /  1016.5hPa SSE 8.2mph /  13.2km/h 15.2mph /  24.5km/h 56% 0in /  0.0mm
16:04 79.7 °F /  26.5 °C 62.8 °F /  17.1 °C 30in /  1016.5hPa SE 8.5mph /  13.7km/h 15mph /  24.1km/h 56.1% 0in /  0.0mm
16:09 79.9 °F /  26.6 °C 62.8 °F /  17.1 °C 30in /  1016.4hPa SE 8.5mph /  13.7km/h 13.8mph /  22.2km/h 56% 0in /  0.0mm
16:14 80.2 °F /  26.8 °C 63 °F /  17.2 °C 30in /  1016.4hPa SSE 8.5mph /  13.7km/h 14mph /  22.5km/h 55.8% 0in /  0.0mm
16:19 80.2 °F /  26.8 °C 62.8 °F /  17.1 °C 30in /  1016.4hPa SSE 8.3mph /  13.3km/h 14mph /  22.5km/h 55.3% 0in /  0.0mm
16:24 80.2 °F /  26.8 °C 62.6 °F /  17 °C 30in /  1016.2hPa SSE 7.4mph /  11.9km/h 13.8mph /  22.2km/h 55% 0in /  0.0mm
16:29 80.2 °F /  26.8 °C 62.4 °F /  16.9 °C 30in /  1016.2hPa SSE 7.4mph /  11.9km/h 14mph /  22.5km/h 54.8% 0in /  0.0mm
16:34 80.1 °F /  26.7 °C 62.2 °F /  16.8 °C 30in /  1016.2hPa ESE 7.4mph /  11.9km/h 13mph /  20.9km/h 54.7% 0in /  0.0mm
16:39 79.9 °F /  26.6 °C 62.2 °F /  16.8 °C 30in /  1016.1hPa SE 7.4mph /  11.9km/h 12.7mph /  20.4km/h 54.9% 0in /  0.0mm
16:44 79.9 °F /  26.6 °C 62.2 °F /  16.8 °C 30in /  1016.1hPa ESE 7.4mph /  11.9km/h 13mph /  20.9km/h 54.9% 0in /  0.0mm
16:49 80.1 °F /  26.7 °C 62.2 °F /  16.8 °C 30in /  1016.1hPa SSE 7.3mph /  11.7km/h 12mph /  19.3km/h 54.4% 0in /  0.0mm
16:54 80.2 °F /  26.8 °C 62.1 °F /  16.7 °C 30in /  1016.1hPa SSE 6.4mph /  10.3km/h 12mph /  19.3km/h 54% 0in /  0.0mm
16:59 80.1 °F /  26.7 °C 62.1 °F /  16.7 °C 30in /  1016.1hPa ESE 6.5mph /  10.5km/h 11.5mph /  18.5km/h 54.2% 0in /  0.0mm
17:04 79.9 °F /  26.6 °C 61.9 °F /  16.6 °C 30in /  1016.1hPa ESE 6.9mph /  11.1km/h 12.7mph /  20.4km/h 54.3% 0in /  0.0mm
17:09 79.5 °F /  26.4 °C 62.1 °F /  16.7 °C 30in /  1016.0hPa SE 7.1mph /  11.5km/h 15.2mph /  24.5km/h 54.9% 0in /  0.0mm
17:14 79.3 °F /  26.3 °C 61.9 °F /  16.6 °C 30in /  1016.0hPa ESE 8.5mph /  13.7km/h 15mph /  24.1km/h 55% 0in /  0.0mm
17:19 79.3 °F /  26.3 °C 61.9 °F /  16.6 °C 30in /  1016.0hPa SE 8.6mph /  13.9km/h 15mph /  24.1km/h 55.2% 0in /  0.0mm
17:24 79.3 °F /  26.3 °C 61.9 °F /  16.6 °C 30in /  1015.9hPa SE 9.2mph /  14.8km/h 13mph /  20.9km/h 55.2% 0in /  0.0mm
17:29 79.3 °F /  26.3 °C 62.1 °F /  16.7 °C 30in /  1015.9hPa ESE 9.1mph /  14.6km/h 13mph /  20.9km/h 55.6% 0in /  0.0mm
17:34 79.3 °F /  26.3 °C 62.2 °F /  16.8 °C 30in /  1015.9hPa SE 8.5mph /  13.7km/h 14.7mph /  23.7km/h 55.7% 0in /  0.0mm
17:39 79.2 °F /  26.2 °C 62.1 °F /  16.7 °C 30in /  1015.8hPa SE 8.5mph /  13.7km/h 15.2mph /  24.5km/h 56% 0in /  0.0mm
17:44 79 °F /  26.1 °C 62.1 °F /  16.7 °C 30in /  1015.8hPa ESE 8.5mph /  13.7km/h 15mph /  24.1km/h 56% 0in /  0.0mm
17:49 79 °F /  26.1 °C 62.1 °F /  16.7 °C 30in /  1015.8hPa ESE 8.5mph /  13.7km/h 15.6mph /  25.1km/h 56.3% 0in /  0.0mm
17:54 78.6 °F /  25.9 °C 62.1 °F /  16.7 °C 30in /  1015.7hPa ESE 8.5mph /  13.7km/h 16.1mph /  25.9km/h 56.9% 0in /  0.0mm
17:59 78.4 °F /  25.8 °C 62.1 °F /  16.7 °C 30in /  1015.7hPa SE 8.5mph /  13.7km/h 16mph /  25.7km/h 57.3% 0in /  0.0mm
18:04 78.6 °F /  25.9 °C 62.1 °F /  16.7 °C 30in /  1015.8hPa ESE 8.7mph /  14km/h 12.3mph /  19.8km/h 57% 0in /  0.0mm
18:09 78.4 °F /  25.8 °C 62.1 °F /  16.7 °C 30in /  1015.8hPa SE 8.5mph /  13.7km/h 15mph /  24.1km/h 57% 0in /  0.0mm
18:14 78.4 °F /  25.8 °C 62.1 °F /  16.7 °C 30in /  1015.8hPa SE 7.4mph /  11.9km/h 15mph /  24.1km/h 57.1% 0in /  0.0mm
18:19 78.3 °F /  25.7 °C 62.2 °F /  16.8 °C 30in /  1015.8hPa SE 7.5mph /  12km/h 14mph /  22.5km/h 57.7% 0in /  0.0mm
18:24 78.3 °F /  25.7 °C 62.1 °F /  16.7 °C 30in /  1015.8hPa SE 8.1mph /  13km/h 14mph /  22.5km/h 57.6% 0in /  0.0mm
18:29 78.3 °F /  25.7 °C 62.1 °F /  16.7 °C 30in /  1015.8hPa SE 8mph /  12.8km/h 14mph /  22.5km/h 57.6% 0in /  0.0mm
18:34 78.1 °F /  25.6 °C 62.1 °F /  16.7 °C 30in /  1015.8hPa SE 7.4mph /  11.9km/h 14mph /  22.5km/h 58% 0in /  0.0mm
18:39 77.9 °F /  25.5 °C 61.9 °F /  16.6 °C 30in /  1015.7hPa SE 7.5mph /  12km/h 13mph /  20.9km/h 58% 0in /  0.0mm
18:44 77.7 °F /  25.4 °C 61.9 °F /  16.6 °C 30in /  1015.7hPa SE 8.1mph /  13km/h 13mph /  20.9km/h 58.3% 0in /  0.0mm
18:49 77.5 °F /  25.3 °C 62.1 °F /  16.7 °C 30in /  1015.7hPa ESE 8mph /  12.8km/h 12mph /  19.3km/h 59% 0in /  0.0mm
18:54 77.4 °F /  25.2 °C 61.9 °F /  16.6 °C 30in /  1015.7hPa SE 7.4mph /  11.9km/h 15.2mph /  24.5km/h 59% 0in /  0.0mm
18:59 77 °F /  25 °C 61.7 °F /  16.5 °C 30in /  1015.7hPa SE 7.6mph /  12.3km/h 15mph /  24.1km/h 59.3% 0in /  0.0mm
19:04 76.8 °F /  24.9 °C 61.9 °F /  16.6 °C 30in /  1015.8hPa SE 8.5mph /  13.7km/h 14mph /  22.5km/h 60% 0in /  0.0mm
19:09 76.6 °F /  24.8 °C 61.7 °F /  16.5 °C 30in /  1015.8hPa SE 8.2mph /  13.2km/h 15mph /  24.1km/h 60% 0in /  0.0mm
19:14 76.5 °F /  24.7 °C 61.9 °F /  16.6 °C 30in /  1015.8hPa SE 6.9mph /  11.1km/h 15mph /  24.1km/h 60.8% 0in /  0.0mm
19:19 76.3 °F /  24.6 °C 61.7 °F /  16.5 °C 30in /  1015.8hPa ESE 6.9mph /  11.1km/h 13mph /  20.9km/h 61% 0in /  0.0mm
19:24 75.9 °F /  24.4 °C 61.9 °F /  16.6 °C 30in /  1015.8hPa SE 6.9mph /  11.1km/h 10.4mph /  16.7km/h 61.8% 0in /  0.0mm
19:29 75.7 °F /  24.3 °C 61.7 °F /  16.5 °C 30in /  1015.8hPa SE 6.8mph /  11km/h 10.7mph /  17.2km/h 62% 0in /  0.0mm
19:34 75.4 °F /  24.1 °C 61.5 °F /  16.4 °C 30in /  1016.0hPa SE 6.4mph /  10.3km/h 11.5mph /  18.5km/h 62.2% 0in /  0.0mm
19:39 75 °F /  23.9 °C 61.7 °F /  16.5 °C 30in /  1016.0hPa SE 6.7mph /  10.8km/h 13mph /  20.9km/h 63% 0in /  0.0mm
19:44 75 °F /  23.9 °C 61.5 °F /  16.4 °C 30in /  1016.0hPa SE 8.1mph /  13km/h 13mph /  20.9km/h 63% 0in /  0.0mm
19:49 74.8 °F /  23.8 °C 61.5 °F /  16.4 °C 30in /  1016.1hPa SE 7.7mph /  12.4km/h 12mph /  19.3km/h 63% 0in /  0.0mm
19:54 74.8 °F /  23.8 °C 61.3 °F /  16.3 °C 30in /  1016.1hPa SE 5.9mph /  9.5km/h 10mph /  16.1km/h 63% 0in /  0.0mm
19:59 74.7 °F /  23.7 °C 61.3 °F /  16.3 °C 30in /  1016.1hPa SE 5.9mph /  9.5km/h 10mph /  16.1km/h 63.2% 0in /  0.0mm
20:04 74.5 °F /  23.6 °C 61.5 °F /  16.4 °C 30in /  1016.1hPa SE 5.9mph /  9.5km/h 9mph /  14.5km/h 64% 0in /  0.0mm
20:09 74.3 °F /  23.5 °C 61.3 °F /  16.3 °C 30in /  1016.1hPa SE 5.7mph /  9.2km/h 8.1mph /  13km/h 64% 0in /  0.0mm
20:14 74.3 °F /  23.5 °C 61.3 °F /  16.3 °C 30in /  1016.1hPa SE 4.7mph /  7.6km/h 8.1mph /  13km/h 64.2% 0in /  0.0mm
20:19 74.1 °F /  23.4 °C 61.5 °F /  16.4 °C 30in /  1016.1hPa ESE 4.7mph /  7.6km/h 8mph /  12.9km/h 64.8% 0in /  0.0mm
20:24 73.9 °F /  23.3 °C 61.5 °F /  16.4 °C 30in /  1016.1hPa SE 4.7mph /  7.6km/h 9.2mph /  14.8km/h 65% 0in /  0.0mm
20:29 73.8 °F /  23.2 °C 61.3 °F /  16.3 °C 30in /  1016.1hPa ESE 4.9mph /  7.9km/h 9.2mph /  14.8km/h 65.3% 0in /  0.0mm
20:34 73.6 °F /  23.1 °C 61.5 °F /  16.4 °C 30in /  1016.2hPa SE 5.9mph /  9.5km/h 9.2mph /  14.8km/h 66% 0in /  0.0mm
20:39 73.4 °F /  23 °C 61.3 °F /  16.3 °C 30in /  1016.2hPa ESE 5.7mph /  9.1km/h 9mph /  14.5km/h 66% 0in /  0.0mm
20:44 73.2 °F /  22.9 °C 61.3 °F /  16.3 °C 30in /  1016.2hPa ESE 4.7mph /  7.6km/h 8.1mph /  13km/h 66.1% 0in /  0.0mm
20:49 73 °F /  22.8 °C 61.5 °F /  16.4 °C 30in /  1016.2hPa ESE 4.8mph /  7.7km/h 8.5mph /  13.7km/h 67% 0in /  0.0mm
20:54 72.9 °F /  22.7 °C 61.3 °F /  16.3 °C 30in /  1016.2hPa SE 5.2mph /  8.4km/h 9mph /  14.5km/h 67% 0in /  0.0mm
20:59 72.9 °F /  22.7 °C 61.3 °F /  16.3 °C 30in /  1016.2hPa SE 5mph /  8km/h 6mph /  9.7km/h 67% 0in /  0.0mm
21:04 72.9 °F /  22.7 °C 61.3 °F /  16.3 °C 30in /  1016.3hPa SE 4mph /  6.5km/h 6.2mph /  10km/h 67.3% 0in /  0.0mm
21:09 72.7 °F /  22.6 °C 61.5 °F /  16.4 °C 30in /  1016.3hPa SE 3.9mph /  6.3km/h 6.2mph /  10km/h 68% 0in /  0.0mm
21:14 72.3 °F /  22.4 °C 61.2 °F /  16.2 °C 30in /  1016.3hPa ESE 3.6mph /  5.8km/h 6mph /  9.7km/h 68% 0in /  0.0mm
21:19 72.3 °F /  22.4 °C 61.2 °F /  16.2 °C 30in /  1016.3hPa ESE 3.5mph /  5.6km/h 6mph /  9.7km/h 68% 0in /  0.0mm
21:24 72.3 °F /  22.4 °C 61.2 °F /  16.2 °C 30in /  1016.2hPa ESE 3.1mph /  5km/h 6.9mph /  11.1km/h 68% 0in /  0.0mm
21:29 72.3 °F /  22.4 °C 61.2 °F /  16.2 °C 30in /  1016.2hPa Este 3mph /  4.8km/h 7mph /  11.3km/h 68% 0in /  0.0mm
21:34 72.1 °F /  22.3 °C 61.2 °F /  16.2 °C 30in /  1016.2hPa Este 2.4mph /  3.9km/h 4.6mph /  7.4km/h 68.1% 0in /  0.0mm
21:39 72.1 °F /  22.3 °C 61.3 °F /  16.3 °C 30in /  1016.2hPa NE 2.4mph /  3.9km/h 5mph /  8km/h 69% 0in /  0.0mm
21:44 72 °F /  22.2 °C 61.2 °F /  16.2 °C 30in /  1016.2hPa NE 2.4mph /  3.9km/h 5mph /  8km/h 69% 0in /  0.0mm
21:49 72 °F /  22.2 °C 61.2 °F /  16.2 °C 30in /  1016.3hPa NE 2.4mph /  3.9km/h 5mph /  8km/h 69% 0in /  0.0mm
21:54 72 °F /  22.2 °C 61.2 °F /  16.2 °C 30in /  1016.3hPa NNE 2.4mph /  3.9km/h 4mph /  6.4km/h 69% 0in /  0.0mm
21:59 72 °F /  22.2 °C 61.2 °F /  16.2 °C 30in /  1016.3hPa NE 2.2mph /  3.6km/h 4.6mph /  7.4km/h 69.1% 0in /  0.0mm
22:04 72 °F /  22.2 °C 61.2 °F /  16.2 °C 30in /  1016.3hPa ENE 1.8mph /  2.9km/h 5mph /  8km/h 69% 0in /  0.0mm
22:09 72 °F /  22.2 °C 61.2 °F /  16.2 °C 30in /  1016.3hPa ENE 1.8mph /  2.9km/h 3.6mph /  5.8km/h 69% 0in /  0.0mm
22:14 71.8 °F /  22.1 °C 61.2 °F /  16.2 °C 30in /  1016.3hPa ESE 1.8mph /  2.9km/h 4.6mph /  7.4km/h 69% 0in /  0.0mm
22:19 71.8 °F /  22.1 °C 61.2 °F /  16.2 °C 30in /  1016.3hPa ESE 2mph /  3.2km/h 5mph /  8km/h 69.3% 0in /  0.0mm
22:24 71.8 °F /  22.1 °C 61.5 °F /  16.4 °C 30in /  1016.3hPa ESE 2.9mph /  4.7km/h 5mph /  8km/h 70% 0in /  0.0mm
22:29 71.6 °F /  22 °C 61.3 °F /  16.3 °C 30in /  1016.3hPa SE 2.9mph /  4.7km/h 5.8mph /  9.3km/h 70% 0in /  0.0mm
22:34 71.4 °F /  21.9 °C 61.2 °F /  16.2 °C 30in /  1016.4hPa ESE 2.9mph /  4.7km/h 6mph /  9.7km/h 70% 0in /  0.0mm
22:39 71.4 °F /  21.9 °C 61.3 °F /  16.3 °C 30in /  1016.4hPa ESE 2.8mph /  4.5km/h 5mph /  8km/h 70.5% 0in /  0.0mm
22:44 71.4 °F /  21.9 °C 61.5 °F /  16.4 °C 30in /  1016.4hPa ESE 2.4mph /  3.9km/h 5mph /  8km/h 71% 0in /  0.0mm
22:49 71.4 °F /  21.9 °C 61.5 °F /  16.4 °C 30in /  1016.5hPa ESE 2.3mph /  3.7km/h 3mph /  4.8km/h 71% 0in /  0.0mm
22:54 71.2 °F /  21.8 °C 61.3 °F /  16.3 °C 30in /  1016.5hPa ESE 1.8mph /  2.9km/h 2.3mph /  3.7km/h 71% 0in /  0.0mm
22:59 71.2 °F /  21.8 °C 61.3 °F /  16.3 °C 30in /  1016.5hPa ESE 1.4mph /  2.2km/h 3.1mph /  5km/h 71% 0in /  0.0mm
23:04 71.1 °F /  21.7 °C 61.3 °F /  16.3 °C 30in /  1016.5hPa Calm   3.5mph /  5.6km/h 71.5% 0in /  0.0mm
23:09 71.1 °F /  21.7 °C 61.5 °F /  16.4 °C 30in /  1016.3hPa ESE 0.2mph /  0.4km/h 3mph /  4.8km/h 72% 0in /  0.0mm
23:14 71.1 °F /  21.7 °C 61.5 °F /  16.4 °C 30in /  1016.3hPa ESE 1.4mph /  2.2km/h 2.3mph /  3.7km/h 72% 0in /  0.0mm
23:19 70.9 °F /  21.6 °C 61.3 °F /  16.3 °C 30in /  1016.5hPa ESE 1.1mph /  1.8km/h 2.4mph /  3.9km/h 72% 0in /  0.0mm
23:24 70.9 °F /  21.6 °C 61.5 °F /  16.4 °C 30in /  1016.5hPa Calm   3.6mph /  5.8km/h 72.5% 0in /  0.0mm
23:29 70.7 °F /  21.5 °C 61.7 °F /  16.5 °C 30in /  1016.5hPa ESE 0.3mph /  0.5km/h 4mph /  6.4km/h 73% 0in /  0.0mm
23:34 70.5 °F /  21.4 °C 61.3 °F /  16.3 °C 30in /  1016.6hPa ESE 1.8mph /  2.9km/h 3mph /  4.8km/h 73% 0in /  0.0mm
23:39 70.5 °F /  21.4 °C 61.5 °F /  16.4 °C 30in /  1016.6hPa ESE 1.5mph /  2.4km/h 3.5mph /  5.6km/h 73.4% 0in /  0.0mm
23:44 70.3 °F /  21.3 °C 61.5 °F /  16.4 °C 30in /  1016.6hPa Calm   3.5mph /  5.6km/h 73.4% 0in /  0.0mm
23:49 70.3 °F /  21.3 °C 61.7 °F /  16.5 °C 30in /  1016.6hPa ESE 0.3mph /  0.5km/h 3.5mph /  5.6km/h 74% 0in /  0.0mm
23:54 70.2 °F /  21.2 °C 61.5 °F /  16.4 °C 30in /  1016.6hPa ESE 2mph /  3.2km/h 4.6mph /  7.4km/h 74% 0in /  0.0mm
23:59 70 °F /  21.1 °C 61.3 °F /  16.3 °C 30in /  1016.6hPa NO 2.1mph /  3.4km/h 5mph /  8km/h 74.2% 0in /  0.0mm
Murcia-Puente Tocinos, España
Compliments of Weather Underground - 3 mb

La estación de MeteoMurcia.com, publica sus datos en los siguientes proyectos:

Weather Underground PWS IMURCIAP2 Meteoclimatic www.awekas.at

W3Counter
Web Analytics